Time;durP1;ratioP1;P1;durP2;ratioP2;P2;SDS_P1;SDS_P2;PMS_P1;PMS_P2;Temp;Humidity;BMP_temperature;BMP_pressure;BME280_temperature;BME280_humidity;BME280_pressure;Samples;Min_cycle;Max_cycle;Signal;HPM_P1;HPM_P2
2023/07/01 00:04:09;;;;;;;10.90;5.90;;;;;;;18.12;100.00;99817.02;222182;1264;138677;-88
2023/07/01 00:09:10;;;;;;;8.70;5.40;;;;;;;18.09;100.00;99822.20;221726;1263;140824;-90
2023/07/01 00:14:10;;;;;;;11.50;5.90;;;;;;;18.08;100.00;99820.07;222396;1263;138813;-90
2023/07/01 00:19:13;;;;;;;9.70;6.00;;;;;;;18.06;100.00;99813.13;221625;1263;140011;-89
2023/07/01 00:24:13;;;;;;;9.70;6.40;;;;;;;18.02;100.00;99815.15;222071;1263;138566;-87
2023/07/01 00:29:15;;;;;;;12.40;6.90;;;;;;;18.01;100.00;99810.25;221493;1263;140812;-89
2023/07/01 00:34:16;;;;;;;15.40;9.30;;;;;;;18.00;100.00;99807.98;222101;1263;138840;-89
2023/07/01 00:39:17;;;;;;;13.10;7.90;;;;;;;17.97;100.00;99807.83;221904;1264;139586;-89
2023/07/01 00:44:17;;;;;;;13.20;8.20;;;;;;;17.95;100.00;99802.97;222076;1262;138624;-90
2023/07/01 00:49:20;;;;;;;13.40;8.50;;;;;;;17.91;100.00;99800.13;221474;1263;140249;-91
2023/07/01 00:54:22;;;;;;;13.50;7.90;;;;;;;17.86;100.00;99800.34;222161;1263;139159;-89
2023/07/01 00:59:22;;;;;;;14.40;8.00;;;;;;;17.83;100.00;99799.95;221628;1263;139987;-89
2023/07/01 01:04:29;;;;;;;17.60;8.80;;;;;;;17.80;100.00;99801.00;222087;1263;139822;-93
2023/07/01 01:09:37;;;;;;;13.80;8.40;;;;;;;17.76;100.00;99801.10;221504;1263;140192;-90
2023/07/01 01:14:41;;;;;;;15.50;9.50;;;;;;;17.73;100.00;99801.77;222083;1264;138457;-90
2023/07/01 01:19:51;;;;;;;15.60;9.00;;;;;;;17.69;100.00;99803.39;221670;1263;141594;-92
2023/07/01 01:24:58;;;;;;;10.90;6.50;;;;;;;17.65;100.00;99799.51;222114;1262;138665;-92
2023/07/01 01:29:58;;;;;;;;;;;;;;;17.63;100.00;99795.05;221672;1263;140481;-91
2023/07/01 01:34:58;;;;;;;15.10;6.30;;;;;;;17.58;100.00;99794.94;222239;1263;124997;-91
2023/07/01 01:40:10;;;;;;;8.40;5.20;;;;;;;17.55;100.00;99792.48;221739;1263;141491;-91
2023/07/01 01:45:13;;;;;;;8.80;5.20;;;;;;;17.53;100.00;99795.39;222538;1266;105587;-92
2023/07/01 01:50:18;;;;;;;9.00;5.20;;;;;;;17.50;100.00;99798.33;221871;1263;140321;-91
2023/07/01 01:55:20;;;;;;;9.00;5.50;;;;;;;17.48;100.00;99792.90;222374;1267;137392;-91
2023/07/01 02:00:21;;;;;;;10.50;5.60;;;;;;;17.45;100.00;99786.61;221738;1263;139898;-91
2023/07/01 02:05:21;;;;;;;10.40;6.20;;;;;;;17.43;100.00;99792.81;222263;1263;138614;-90
2023/07/01 02:10:22;;;;;;;11.50;5.50;;;;;;;17.39;100.00;99785.83;221640;1263;140220;-92
2023/07/01 02:15:22;;;;;;;8.50;3.80;;;;;;;17.35;100.00;99787.27;222327;1263;97045;-92
2023/07/01 02:20:23;;;;;;;8.90;4.60;;;;;;;17.31;100.00;99786.10;221650;1263;141334;-92
2023/07/01 02:25:23;;;;;;;9.60;4.70;;;;;;;17.25;100.00;99785.01;222410;1266;139008;-90
2023/07/01 02:30:24;;;;;;;9.70;5.70;;;;;;;17.18;100.00;99780.32;221788;1264;139230;-90
2023/07/01 02:35:24;;;;;;;13.00;6.00;;;;;;;17.16;100.00;99780.21;222432;1263;139102;-90
2023/07/01 02:40:24;;;;;;;9.90;5.30;;;;;;;17.12;100.00;99774.94;221721;1262;140490;-91
2023/07/01 02:45:26;;;;;;;9.50;5.30;;;;;;;17.06;100.00;99781.57;222407;1263;96598;-93
2023/07/01 02:50:26;;;;;;;9.20;4.70;;;;;;;16.96;100.00;99779.31;221674;1263;140175;-91
2023/07/01 02:55:29;;;;;;;11.00;5.10;;;;;;;16.88;100.00;99780.70;222228;1266;138545;-91
2023/07/01 03:00:30;;;;;;;11.70;4.80;;;;;;;16.80;100.00;99780.66;221694;1263;139583;-90
2023/07/01 03:05:30;;;;;;;9.20;5.00;;;;;;;16.71;100.00;99775.32;222261;1263;138796;-90
2023/07/01 03:10:31;;;;;;;11.60;5.10;;;;;;;16.65;100.00;99782.08;222051;1263;140527;-90
2023/07/01 03:15:32;;;;;;;9.50;5.20;;;;;;;16.55;100.00;99778.09;222300;1263;96473;-92
2023/07/01 03:20:32;;;;;;;6.70;3.90;;;;;;;16.49;100.00;99771.17;221989;1263;140438;-92
2023/07/01 03:25:33;;;;;;;9.50;5.00;;;;;;;16.45;100.00;99771.11;222152;1263;138323;-93
2023/07/01 03:30:33;;;;;;;12.10;6.40;;;;;;;16.41;100.00;99769.06;221707;1262;140860;-90
2023/07/01 03:35:33;;;;;;;13.10;6.20;;;;;;;16.37;100.00;99772.36;222457;1263;138801;-91
2023/07/01 03:40:34;;;;;;;11.50;6.00;;;;;;;16.34;100.00;99770.14;221614;1263;141499;-91
2023/07/01 03:45:34;;;;;;;9.00;6.10;;;;;;;16.33;100.00;99772.62;222189;1263;96586;-91
2023/07/01 03:50:35;;;;;;;10.20;6.20;;;;;;;16.30;100.00;99773.31;221887;1262;139796;-93
2023/07/01 03:55:35;;;;;;;9.90;5.40;;;;;;;16.28;100.00;99770.27;222079;1263;138783;-92
2023/07/01 04:00:36;;;;;;;8.80;5.90;;;;;;;16.26;100.00;99770.16;221669;1263;139367;-92
2023/07/01 04:05:36;;;;;;;9.80;5.50;;;;;;;16.25;100.00;99769.30;222162;1263;138509;-91
2023/07/01 04:10:37;;;;;;;10.60;4.60;;;;;;;16.25;100.00;99770.73;221640;1263;141702;-93
2023/07/01 04:15:37;;;;;;;10.00;3.90;;;;;;;16.28;100.00;99762.48;222279;1262;96596;-94
2023/07/01 04:20:37;;;;;;;8.00;4.10;;;;;;;16.31;100.00;99757.34;221760;1262;140501;-91
2023/07/01 04:25:40;;;;;;;11.20;5.20;;;;;;;16.35;100.00;99759.09;222163;1263;138460;-91
2023/07/01 04:30:40;;;;;;;7.50;3.70;;;;;;;16.36;100.00;99755.56;221741;1263;139682;-92
2023/07/01 04:35:40;;;;;;;10.20;4.40;;;;;;;16.40;100.00;99754.94;222174;1263;138504;-91
2023/07/01 04:40:41;;;;;;;9.40;4.80;;;;;;;16.45;100.00;99750.95;221645;1262;141949;-91
2023/07/01 04:45:42;;;;;;;8.80;4.60;;;;;;;16.50;100.00;99750.75;222330;1263;96500;-92
2023/07/01 04:50:43;;;;;;;10.00;4.70;;;;;;;16.53;100.00;99748.60;221650;1263;141350;-90
2023/07/01 04:55:44;;;;;;;8.40;4.20;;;;;;;16.59;100.00;99755.77;222273;1262;138707;-91
2023/07/01 05:00:45;;;;;;;8.90;4.30;;;;;;;16.64;100.00;99758.66;221493;1263;141033;-92
2023/07/01 05:05:46;;;;;;;8.10;3.50;;;;;;;16.76;100.00;99757.48;222297;1263;139127;-91
2023/07/01 05:10:46;;;;;;;8.70;3.80;;;;;;;16.88;100.00;99754.96;221679;1263;141022;-91
2023/07/01 05:15:46;;;;;;;9.20;3.70;;;;;;;17.05;100.00;99759.55;222269;1263;96544;-91
2023/07/01 05:20:47;;;;;;;8.60;3.60;;;;;;;17.21;100.00;99760.70;221450;1263;141065;-91
2023/07/01 05:25:49;;;;;;;8.00;3.60;;;;;;;17.37;100.00;99765.20;222201;1263;138850;-90
2023/07/01 05:30:50;;;;;;;9.60;3.20;;;;;;;17.66;100.00;99761.02;221851;1263;139104;-89
2023/07/01 05:35:50;;;;;;;4.60;2.50;;;;;;;18.00;100.00;99756.89;222437;1263;138519;-89
2023/07/01 05:40:51;;;;;;;6.50;2.90;;;;;;;18.37;100.00;99754.92;221720;1263;139968;-91
2023/07/01 05:45:52;;;;;;;8.40;3.10;;;;;;;18.78;100.00;99751.30;222251;1263;96644;-88
2023/07/01 05:50:52;;;;;;;6.50;3.10;;;;;;;19.20;100.00;99745.09;221614;1263;140140;-87
2023/07/01 05:55:53;;;;;;;5.90;2.70;;;;;;;19.59;100.00;99749.02;222253;1262;138825;-89
2023/07/01 06:00:53;;;;;;;7.60;2.60;;;;;;;20.06;100.00;99752.08;221742;1263;139739;-87
2023/07/01 06:05:54;;;;;;;5.10;2.40;;;;;;;20.50;98.03;99755.33;222043;1263;138628;-86
2023/07/01 06:10:54;;;;;;;7.30;2.40;;;;;;;20.91;98.20;99757.30;221709;1263;141893;-88
2023/07/01 06:15:54;;;;;;;5.70;2.40;;;;;;;21.43;96.54;99761.41;222357;1263;96586;-88
2023/07/01 06:20:56;;;;;;;6.90;2.40;;;;;;;21.96;93.99;99766.15;221904;1266;139664;-85
2023/07/01 06:25:57;;;;;;;6.40;2.90;;;;;;;22.49;90.89;99769.77;222292;1263;138511;-85
2023/07/01 06:30:57;;;;;;;8.20;2.70;;;;;;;22.73;88.84;99769.45;221817;1263;140363;-87
2023/07/01 06:35:58;;;;;;;8.20;3.40;;;;;;;22.98;87.44;99772.77;222238;1266;138479;-86
2023/07/01 06:40:58;;;;;;;7.40;2.80;;;;;;;23.22;85.54;99768.57;221937;1263;144769;-85
2023/07/01 06:45:59;;;;;;;6.60;2.70;;;;;;;23.40;82.47;99765.60;222503;1263;96479;-85
2023/07/01 06:51:00;;;;;;;7.50;2.90;;;;;;;23.42;80.69;99763.08;221846;1262;141701;-86
2023/07/01 06:56:00;;;;;;;6.80;3.00;;;;;;;23.41;80.46;99762.60;222224;1263;138240;-86
2023/07/01 07:01:00;;;;;;;6.70;3.10;;;;;;;23.39;79.56;99755.48;221916;1263;139697;-83
2023/07/01 07:06:01;;;;;;;6.00;3.10;;;;;;;23.50;78.22;99765.08;222466;1263;138824;-83
2023/07/01 07:11:01;;;;;;;7.10;3.20;;;;;;;23.58;75.95;99765.95;221830;1263;140363;-83
2023/07/01 07:16:01;;;;;;;6.70;3.20;;;;;;;23.30;75.05;99761.51;222526;1266;96562;-82
2023/07/01 07:21:02;;;;;;;6.90;3.20;;;;;;;23.34;76.32;99759.19;221754;1266;140597;-81
2023/07/01 07:26:02;;;;;;;8.80;3.70;;;;;;;23.58;76.98;99764.36;222386;1266;137794;-83
2023/07/01 07:31:02;;;;;;;7.20;2.70;;;;;;;23.54;73.73;99756.17;221897;1262;140970;-82
2023/07/01 07:36:03;;;;;;;7.80;3.30;;;;;;;23.38;75.38;99748.79;222039;1263;138602;-84
2023/07/01 07:41:04;;;;;;;7.70;3.10;;;;;;;23.45;74.22;99748.73;221708;1267;141280;-82
2023/07/01 07:46:04;;;;;;;5.50;2.40;;;;;;;23.54;74.00;99743.61;222498;1263;96553;-84
2023/07/01 07:51:04;;;;;;;5.20;2.90;;;;;;;23.69;73.29;99733.64;221577;1263;139515;-83
2023/07/01 07:56:05;;;;;;;7.20;2.70;;;;;;;24.06;73.09;99729.73;222341;1263;137715;-83
2023/07/01 08:01:05;;;;;;;10.30;3.70;;;;;;;24.38;70.94;99723.58;221906;1263;140793;-83
2023/07/01 08:06:06;;;;;;;4.80;2.50;;;;;;;24.50;68.52;99717.33;222442;1263;137961;-84
2023/07/01 08:11:07;;;;;;;8.90;3.10;;;;;;;24.61;68.52;99710.60;221659;1263;141934;-85
2023/07/01 08:16:07;;;;;;;6.20;2.70;;;;;;;25.14;67.27;99706.98;222205;1263;96592;-84
2023/07/01 08:21:08;;;;;;;9.30;2.60;;;;;;;25.89;67.14;99697.92;221772;1263;140192;-86
2023/07/01 08:26:08;;;;;;;7.10;3.40;;;;;;;26.49;64.57;99701.77;222051;1263;137621;-85
2023/07/01 08:31:08;;;;;;;6.80;2.50;;;;;;;27.13;62.46;99698.06;221553;1267;142542;-86
2023/07/01 08:36:09;;;;;;;6.30;2.20;;;;;;;27.47;59.25;99687.56;222392;1263;137709;-86
2023/07/01 08:41:14;;;;;;;5.00;2.10;;;;;;;27.56;55.65;99693.77;221859;1263;141166;-86
2023/07/01 08:46:18;;;;;;;6.30;2.70;;;;;;;28.02;56.70;99686.08;222352;1263;137614;-86
2023/07/01 08:51:27;;;;;;;7.00;2.40;;;;;;;28.49;55.60;99684.64;222037;1263;141031;-89
2023/07/01 08:56:27;;;;;;;6.40;2.00;;;;;;;29.10;54.06;99684.41;222382;1263;137560;-86
2023/07/01 09:01:30;;;;;;;7.40;2.80;;;;;;;29.39;52.75;99676.48;221888;1263;139014;-87
2023/07/01 09:06:31;;;;;;;4.70;2.50;;;;;;;29.55;51.60;99670.69;222456;1263;137905;-86
2023/07/01 09:11:32;;;;;;;7.90;3.00;;;;;;;29.95;51.18;99663.61;221850;1263;140670;-87
2023/07/01 09:16:34;;;;;;;9.70;3.70;;;;;;;30.06;48.06;99663.80;222343;1266;137686;-89
2023/07/01 09:21:35;;;;;;;7.80;3.70;;;;;;;29.76;47.35;99654.90;221791;1263;138656;-86
2023/07/01 09:26:36;;;;;;;7.60;3.10;;;;;;;29.72;49.87;99643.27;222465;1263;137458;-86
2023/07/01 09:31:47;;;;;;;7.40;3.30;;;;;;;29.84;48.28;99642.20;221784;1263;138568;-86
2023/07/01 09:36:47;;;;;;;6.00;2.50;;;;;;;30.02;49.49;99640.26;222408;1266;138565;-86
2023/07/01 09:42:02;;;;;;;6.20;2.90;;;;;;;30.39;48.15;99640.80;221884;1263;138990;-87
2023/07/01 09:47:04;;;;;;;8.40;2.80;;;;;;;30.55;46.40;99636.58;222267;1263;137601;-87
2023/07/01 09:52:05;;;;;;;8.40;2.50;;;;;;;30.20;45.97;99633.30;221889;1263;140098;-89
2023/07/01 09:57:07;;;;;;;5.30;2.40;;;;;;;30.24;43.83;99625.63;222270;1263;137770;-89
2023/07/01 10:02:08;;;;;;;6.40;2.50;;;;;;;30.18;44.19;99626.14;221890;1266;140225;-89
2023/07/01 10:07:08;;;;;;;4.10;2.20;;;;;;;30.25;41.42;99616.52;222067;1263;137638;-90
2023/07/01 10:12:10;;;;;;;5.00;2.40;;;;;;;29.99;42.24;99610.09;221942;1263;140203;-90
2023/07/01 10:17:10;;;;;;;5.50;2.40;;;;;;;30.27;41.71;99598.49;222414;1263;137708;-89
2023/07/01 10:22:29;;;;;;;6.20;2.50;;;;;;;30.09;40.12;99596.70;221744;1263;139450;-92
2023/07/01 10:27:44;;;;;;;5.40;2.50;;;;;;;29.82;41.92;99587.13;222448;1263;107608;-92
2023/07/01 10:32:45;;;;;;;6.10;2.80;;;;;;;30.38;43.11;99578.61;221923;1266;140311;-90
2023/07/01 10:38:21;;;;;;;6.40;2.20;;;;;;;30.40;40.14;99573.62;221799;1263;302993;-91
2023/07/01 10:43:26;;;;;;;6.90;2.80;;;;;;;30.10;41.09;99568.30;221834;1263;140002;-89
2023/07/01 10:48:26;;;;;;;;;;;;;;;30.30;41.26;99554.84;222430;1263;138175;-89
2023/07/01 10:53:27;;;;;;;4.50;2.10;;;;;;;30.64;41.07;99549.92;221788;1263;125380;-87
2023/07/01 10:58:28;;;;;;;8.10;2.80;;;;;;;31.01;41.28;99535.69;222380;1263;137658;-88
2023/07/01 11:03:35;;;;;;;5.10;2.40;;;;;;;31.01;38.91;99531.14;221831;1263;140166;-88
2023/07/01 11:08:50;;;;;;;4.20;2.30;;;;;;;31.08;42.23;99525.67;222393;1263;139204;-86
2023/07/01 11:13:54;;;;;;;;;;;;;;;31.64;39.94;99520.58;221827;1263;140031;-90
2023/07/01 11:18:57;;;;;;;6.00;2.90;;;;;;;31.44;39.19;99520.48;221881;1263;125656;-88
2023/07/01 11:24:23;;;;;;;4.30;2.60;;;;;;;31.43;39.92;99515.33;222265;1263;137621;-86
2023/07/01 11:29:24;;;;;;;5.20;2.70;;;;;;;31.55;40.30;99505.71;221746;1263;139194;-87
2023/07/01 11:34:24;;;;;;;6.10;3.10;;;;;;;31.90;40.86;99500.15;222395;1263;138711;-87
2023/07/01 11:39:26;;;;;;;5.50;3.30;;;;;;;31.71;38.23;99500.68;221968;1266;140484;-91
2023/07/01 11:44:28;;;;;;;6.70;3.10;;;;;;;30.83;39.84;99499.59;222077;1263;138525;-86
2023/07/01 11:49:32;;;;;;;5.60;2.80;;;;;;;30.74;41.52;99488.12;221715;1263;143289;-87
2023/07/01 11:54:39;;;;;;;8.30;3.90;;;;;;;30.83;42.26;99485.73;222458;1263;137625;-87
2023/07/01 11:59:47;;;;;;;4.50;2.40;;;;;;;30.68;41.97;99484.02;221876;1263;139088;-86
2023/07/01 12:04:54;;;;;;;8.20;3.90;;;;;;;30.40;42.93;99487.47;222250;1263;137639;-86
2023/07/01 12:09:54;;;;;;;7.20;4.10;;;;;;;29.91;41.95;99489.48;221956;1264;140241;-85
2023/07/01 12:15:03;;;;;;;7.60;3.80;;;;;;;29.30;43.13;99487.59;222470;1263;138231;-85
2023/07/01 12:20:08;;;;;;;9.80;4.70;;;;;;;28.67;43.54;99484.12;221722;1268;140937;-88
2023/07/01 12:25:08;;;;;;;8.60;4.30;;;;;;;27.76;45.27;99484.34;222359;1263;138790;-86
2023/07/01 12:30:09;;;;;;;8.70;4.40;;;;;;;27.27;46.69;99483.44;221862;1263;139088;-87
2023/07/01 12:35:09;;;;;;;10.40;4.80;;;;;;;27.06;48.21;99473.91;222263;1263;137958;-91
2023/07/01 12:40:11;;;;;;;8.90;4.30;;;;;;;27.05;48.35;99471.94;221749;1263;139947;-91
2023/07/01 12:45:11;;;;;;;10.40;4.70;;;;;;;27.14;49.63;99461.44;222333;1263;137766;-86
2023/07/01 12:50:12;;;;;;;11.80;5.10;;;;;;;27.19;48.69;99453.59;221902;1263;139896;-88
2023/07/01 12:55:12;;;;;;;10.60;4.90;;;;;;;27.04;49.25;99453.00;222316;1263;137941;-87
2023/07/01 13:00:13;;;;;;;9.10;5.30;;;;;;;27.01;49.69;99449.70;221840;1266;139433;-89
2023/07/01 13:05:18;;;;;;;9.40;5.50;;;;;;;27.23;49.87;99447.84;222464;1263;138280;-87
2023/07/01 13:10:19;;;;;;;9.30;5.20;;;;;;;27.56;49.58;99445.25;221955;1266;139166;-92
2023/07/01 13:15:30;;;;;;;11.40;5.40;;;;;;;27.65;49.77;99437.17;222493;1263;137440;-88
2023/07/01 13:20:33;;;;;;;9.30;4.70;;;;;;;27.88;50.34;99434.36;221859;1262;145375;-89
2023/07/01 13:25:34;;;;;;;9.90;5.70;;;;;;;28.13;49.60;99426.05;222486;1263;137743;-86
2023/07/01 13:30:42;;;;;;;10.20;5.90;;;;;;;28.39;48.43;99425.02;221852;1263;140154;-86
2023/07/01 13:35:43;;;;;;;9.80;5.80;;;;;;;28.43;48.21;99420.68;222288;1266;137743;-89
2023/07/01 13:40:44;;;;;;;9.70;5.90;;;;;;;28.57;48.38;99420.09;221878;1264;140691;-87
2023/07/01 13:45:46;;;;;;;10.10;5.70;;;;;;;28.62;47.25;99416.30;222572;1263;96580;-90
2023/07/01 13:50:50;;;;;;;9.40;5.50;;;;;;;28.72;47.33;99404.34;221762;1266;141893;-90
2023/07/01 13:55:51;;;;;;;10.00;5.90;;;;;;;28.76;45.16;99403.03;222440;1266;137468;-88
2023/07/01 14:00:53;;;;;;;10.00;5.70;;;;;;;28.46;44.53;99395.41;221789;1263;138665;-90
2023/07/01 14:05:55;;;;;;;9.90;5.80;;;;;;;28.43;44.73;99382.75;222460;1263;137802;-95
2023/07/01 14:10:57;;;;;;;9.70;5.60;;;;;;;28.57;44.69;99372.78;221590;1266;140478;-94
2023/07/01 14:15:57;;;;;;;9.80;5.80;;;;;;;28.64;45.10;99372.58;222222;1267;96607;-87
2023/07/01 14:21:04;;;;;;;9.70;6.20;;;;;;;28.79;44.29;99373.08;221932;1263;140213;-88
2023/07/01 14:26:13;;;;;;;10.20;5.50;;;;;;;28.63;43.49;99361.48;222481;1263;137454;-85
2023/07/01 14:31:17;;;;;;;11.80;6.10;;;;;;;28.33;42.63;99362.05;222385;1266;96589;-86
2023/07/01 14:36:37;;;;;;;9.40;5.70;;;;;;;28.05;43.89;99350.58;220217;1268;137821;-84
2023/07/01 14:41:39;;;;;;;9.70;5.30;;;;;;;28.06;44.91;99346.25;219467;1266;139724;-85
2023/07/01 14:46:40;;;;;;;10.70;5.70;;;;;;;28.19;45.19;99344.48;219930;1265;137614;-84
2023/07/01 14:51:41;;;;;;;10.00;6.40;;;;;;;27.92;44.58;99345.07;219553;1267;141935;-84
2023/07/01 14:56:42;;;;;;;9.80;5.50;;;;;;;27.49;45.84;99344.45;219950;1271;138588;-85
2023/07/01 15:01:42;;;;;;;10.60;6.10;;;;;;;27.44;46.82;99345.89;219514;1266;139762;-83
2023/07/01 15:06:42;;;;;;;11.60;5.60;;;;;;;27.29;46.46;99344.64;220129;1266;137954;-84
2023/07/01 15:11:43;;;;;;;9.50;5.70;;;;;;;26.98;46.83;99340.73;219634;1266;142296;-83
2023/07/01 15:16:44;;;;;;;11.80;5.90;;;;;;;26.67;47.35;99332.23;219890;1266;137728;-83
2023/07/01 15:21:44;;;;;;;10.70;6.00;;;;;;;26.51;48.14;99324.19;219818;1266;139802;-83
2023/07/01 15:26:45;;;;;;;11.10;5.90;;;;;;;26.49;48.10;99324.48;221017;1269;138105;-84
2023/07/01 15:31:46;;;;;;;11.70;6.40;;;;;;;26.31;48.28;99318.05;220988;1266;139888;-86
2023/07/01 15:36:46;;;;;;;11.30;5.80;;;;;;;26.28;48.31;99315.80;221322;1267;137917;-86
2023/07/01 15:41:47;;;;;;;9.40;4.90;;;;;;;26.20;48.09;99312.85;220769;1268;139751;-86
2023/07/01 15:46:47;;;;;;;10.10;4.80;;;;;;;26.18;48.40;99310.65;221220;1266;138332;-87
2023/07/01 15:51:48;;;;;;;10.10;4.60;;;;;;;26.22;47.41;99306.86;220839;1265;140822;-84
2023/07/01 15:56:49;;;;;;;10.30;4.50;;;;;;;26.10;45.84;99304.94;221304;1266;137798;-85
2023/07/01 16:01:49;;;;;;;13.00;4.40;;;;;;;26.01;46.16;99297.63;220916;1270;141176;-85
2023/07/01 16:06:50;;;;;;;10.00;4.30;;;;;;;25.92;45.67;99302.16;222264;1265;138208;-83
2023/07/01 16:11:50;;;;;;;9.20;4.40;;;;;;;25.74;45.05;99305.92;223110;1267;139874;-85
2023/07/01 16:16:54;;;;;;;5.40;3.20;;;;;;;25.65;45.79;99303.02;223192;1266;138837;-84
2023/07/01 16:21:54;;;;;;;7.10;4.10;;;;;;;25.59;45.43;99301.05;219678;1270;209101;-84
2023/07/01 16:26:57;;;;;;;8.00;3.90;;;;;;;25.52;45.00;99302.81;220268;1269;137984;-85
2023/07/01 16:31:57;;;;;;;6.90;3.70;;;;;;;25.42;44.65;99307.88;219651;1269;140342;-84
2023/07/01 16:36:58;;;;;;;8.30;4.30;;;;;;;25.37;45.18;99310.40;220065;1273;138496;-85
2023/07/01 16:42:02;;;;;;;7.80;4.20;;;;;;;25.34;46.00;99309.38;219369;1268;140196;-88
2023/07/01 16:47:02;;;;;;;7.20;4.00;;;;;;;25.26;45.39;99310.23;220115;1272;138566;-88
2023/07/01 16:52:03;;;;;;;10.40;4.80;;;;;;;25.10;46.07;99313.04;219726;1269;140976;-88
2023/07/01 16:57:06;;;;;;;8.20;4.60;;;;;;;25.00;46.30;99311.39;219870;1270;137850;-88
2023/07/01 17:02:29;;;;;;;8.10;4.60;;;;;;;24.92;46.56;99307.55;219334;1270;139737;-88
2023/07/01 17:07:31;;;;;;;10.70;5.30;;;;;;;24.90;46.86;99309.98;220072;1266;137579;-89
2023/07/01 17:12:33;;;;;;;9.70;4.70;;;;;;;24.83;48.54;99313.30;220621;1267;140479;-86
2023/07/01 17:17:33;;;;;;;10.70;5.30;;;;;;;24.76;48.98;99311.67;221369;1266;137593;-87
2023/07/01 17:22:34;;;;;;;11.70;5.50;;;;;;;24.71;49.21;99310.09;220884;1265;141827;-83
2023/07/01 17:27:35;;;;;;;10.00;5.30;;;;;;;24.64;48.92;99310.13;221630;1269;108469;-85
2023/07/01 17:32:35;;;;;;;12.10;5.70;;;;;;;24.55;49.11;99309.00;220699;1266;139819;-84
2023/07/01 17:37:36;;;;;;;8.30;4.80;;;;;;;24.51;49.09;99309.73;221342;1267;137985;-85
2023/07/01 17:42:36;;;;;;;9.80;5.60;;;;;;;24.45;49.27;99311.31;221064;1268;139983;-85
2023/07/01 17:47:37;;;;;;;12.70;4.90;;;;;;;24.39;49.77;99306.51;221273;1267;138325;-85
2023/07/01 17:52:38;;;;;;;9.60;4.70;;;;;;;24.35;50.20;99308.83;221049;1267;140461;-85
2023/07/01 17:57:38;;;;;;;7.40;4.60;;;;;;;24.29;50.62;99303.54;223716;1266;95021;-84
2023/07/01 18:02:38;;;;;;;9.80;5.20;;;;;;;24.23;50.81;99300.58;222927;1265;139405;-84
2023/07/01 18:07:39;;;;;;;11.70;4.90;;;;;;;24.20;51.01;99297.94;220426;1265;137818;-85
2023/07/01 18:12:41;;;;;;;8.40;4.30;;;;;;;24.14;51.60;99293.44;219667;1267;139137;-85
2023/07/01 18:17:42;;;;;;;9.20;4.60;;;;;;;24.08;51.62;99291.42;220122;1270;137549;-85
2023/07/01 18:22:44;;;;;;;11.40;4.90;;;;;;;24.02;51.39;99290.70;219619;1267;139365;-85
2023/07/01 18:27:44;;;;;;;9.10;4.50;;;;;;;23.95;51.34;99288.17;220238;1269;96605;-85
2023/07/01 18:32:45;;;;;;;10.70;4.90;;;;;;;23.89;50.95;99289.94;219824;1267;139084;-84
2023/07/01 18:37:46;;;;;;;9.80;4.80;;;;;;;23.79;51.18;99291.07;220559;1267;138633;-84
2023/07/01 18:42:46;;;;;;;8.50;4.60;;;;;;;23.70;51.57;99289.29;223200;1266;138977;-85
2023/07/01 18:47:46;;;;;;;10.10;4.20;;;;;;;23.59;52.58;99293.23;221081;1267;138038;-84
2023/07/01 18:52:47;;;;;;;8.80;4.80;;;;;;;23.44;53.84;99290.34;220309;1269;140790;-84
2023/07/01 18:57:47;;;;;;;7.00;4.40;;;;;;;23.26;54.46;99286.08;220823;1266;97848;-84
2023/07/01 19:02:48;;;;;;;7.60;4.10;;;;;;;23.13;54.93;99281.63;220668;1269;139915;-86
2023/07/01 19:07:48;;;;;;;8.30;4.80;;;;;;;22.96;55.16;99270.10;221510;1267;138098;-86
2023/07/01 19:12:49;;;;;;;8.60;4.50;;;;;;;22.89;55.21;99272.34;220944;1267;139250;-87
2023/07/01 19:17:49;;;;;;;8.60;3.70;;;;;;;22.83;55.85;99276.60;221233;1265;137657;-90
2023/07/01 19:22:50;;;;;;;9.10;4.80;;;;;;;22.77;55.56;99277.16;220608;1265;139487;-90
2023/07/01 19:27:50;;;;;;;13.70;5.60;;;;;;;22.71;54.91;99281.09;221387;1265;96642;-89
2023/07/01 19:32:51;;;;;;;13.90;5.70;;;;;;;22.63;54.55;99285.70;220929;1265;141786;-90
2023/07/01 19:37:52;;;;;;;12.20;6.50;;;;;;;22.56;55.14;99291.81;221301;1266;138217;-89
2023/07/01 19:42:52;;;;;;;12.70;5.30;;;;;;;22.46;55.25;99290.88;222259;1265;139351;-90
2023/07/01 19:47:53;;;;;;;14.20;5.60;;;;;;;22.38;55.39;99292.52;223485;1266;138347;-89
2023/07/01 19:52:53;;;;;;;10.40;5.90;;;;;;;22.33;55.84;99285.68;221192;1267;139503;-88
2023/07/01 19:57:54;;;;;;;12.60;5.60;;;;;;;22.25;56.12;99282.96;220285;1268;96695;-86
2023/07/01 20:02:54;;;;;;;12.90;6.10;;;;;;;22.18;56.39;99281.75;219527;1268;139952;-83
2023/07/01 20:07:54;;;;;;;12.70;6.60;;;;;;;22.13;56.82;99280.94;220093;1266;137717;-85
2023/07/01 20:12:55;;;;;;;9.70;5.50;;;;;;;22.08;57.44;99280.65;219518;1267;139724;-87
2023/07/01 20:17:56;;;;;;;11.90;5.60;;;;;;;22.01;57.44;99278.43;219858;1268;137572;-87
2023/07/01 20:22:56;;;;;;;14.00;5.90;;;;;;;21.92;57.49;99280.86;219494;1265;140581;-85
2023/07/01 20:27:57;;;;;;;10.90;5.70;;;;;;;21.84;57.42;99278.01;220074;1268;96631;-86
2023/07/01 20:32:57;;;;;;;10.10;5.50;;;;;;;21.78;57.53;99280.44;219396;1269;139144;-88
2023/07/01 20:37:58;;;;;;;12.40;6.20;;;;;;;21.75;58.25;99283.29;220006;1268;138426;-86
2023/07/01 20:42:58;;;;;;;10.80;5.90;;;;;;;21.72;58.19;99279.36;219390;1267;142228;-87
2023/07/01 20:47:59;;;;;;;12.80;6.20;;;;;;;21.68;58.50;99275.62;220528;1265;138025;-89
2023/07/01 20:52:59;;;;;;;16.30;6.60;;;;;;;21.64;58.61;99271.27;220428;1266;205953;-87
2023/07/01 20:57:59;;;;;;;11.80;6.30;;;;;;;21.60;58.73;99269.31;221249;1265;96537;-87
2023/07/01 21:03:00;;;;;;;12.60;5.40;;;;;;;21.54;59.01;99264.27;220495;1265;140122;-87
2023/07/01 21:08:02;;;;;;;11.80;5.60;;;;;;;21.51;59.22;99260.23;221336;1269;138204;-87
2023/07/01 21:13:04;;;;;;;14.40;6.20;;;;;;;21.46;59.25;99254.52;220754;1265;141033;-87
2023/07/01 21:18:04;;;;;;;11.60;5.50;;;;;;;21.43;59.80;99252.33;221312;1265;137968;-86
2023/07/01 21:23:05;;;;;;;13.50;6.10;;;;;;;21.41;60.09;99252.42;220713;1265;140037;-87
2023/07/01 21:28:07;;;;;;;13.10;6.00;;;;;;;21.37;60.50;99249.20;222108;1266;95343;-87
2023/07/01 21:33:08;;;;;;;11.70;5.50;;;;;;;21.34;60.56;99246.19;222906;1265;138901;-87
2023/07/01 21:38:08;;;;;;;10.10;5.30;;;;;;;21.34;60.78;99249.42;223610;1265;138092;-85
2023/07/01 21:43:32;;;;;;;12.80;6.00;;;;;;;21.31;60.97;99250.08;219586;1268;139849;-83
2023/07/01 21:48:33;;;;;;;12.60;6.10;;;;;;;21.25;61.58;99256.73;219850;1268;137926;-84
2023/07/01 21:53:42;;;;;;;10.50;6.30;;;;;;;21.21;61.53;99256.33;219977;1265;140667;-83
2023/07/01 21:58:51;;;;;;;11.70;5.80;;;;;;;21.16;61.65;99252.41;220429;1268;138387;-84
2023/07/01 22:03:53;;;;;;;13.20;5.90;;;;;;;21.11;61.94;99245.70;219761;1265;138389;-82
2023/07/01 22:08:54;;;;;;;9.90;5.80;;;;;;;21.06;62.19;99237.09;219491;1265;141268;-84
2023/07/01 22:13:55;;;;;;;12.00;5.50;;;;;;;21.04;62.29;99235.45;220211;1266;137969;-83
2023/07/01 22:18:56;;;;;;;10.90;5.70;;;;;;;21.02;62.43;99232.98;219262;1265;139943;-83
2023/07/01 22:23:57;;;;;;;11.70;6.00;;;;;;;21.00;62.63;99235.80;219683;1266;137963;-83
2023/07/01 22:28:58;;;;;;;11.00;6.20;;;;;;;20.96;62.88;99237.35;219408;1265;140230;-84
2023/07/01 22:33:58;;;;;;;10.90;6.10;;;;;;;20.92;63.37;99239.54;220313;1266;96141;-83
2023/07/01 22:38:59;;;;;;;13.90;5.60;;;;;;;20.90;63.52;99242.16;220021;1265;256280;-84
2023/07/01 22:43:59;;;;;;;11.30;5.20;;;;;;;20.88;63.63;99243.90;220929;1266;137801;-84
2023/07/01 22:49:00;;;;;;;11.40;6.30;;;;;;;20.86;64.14;99247.50;220331;1265;140449;-85
2023/07/01 22:54:00;;;;;;;10.70;4.70;;;;;;;20.82;64.43;99249.30;220907;1266;137769;-85
2023/07/01 22:59:00;;;;;;;11.60;5.40;;;;;;;20.80;65.10;99247.50;220348;1265;140225;-84
2023/07/01 23:04:01;;;;;;;9.60;5.10;;;;;;;20.77;66.03;99252.13;221067;1265;96108;-85